sensor_id;sensor_type;location;lat;lon;timestamp;temperature;humidity
20398;DHT22;10358;49.590;11.030;2023-06-04T00:01:40;13.60;58.70
20398;DHT22;10358;49.590;11.030;2023-06-04T00:04:05;13.60;58.90
20398;DHT22;10358;49.590;11.030;2023-06-04T00:06:31;13.50;59.10
20398;DHT22;10358;49.590;11.030;2023-06-04T00:08:56;13.40;59.40
20398;DHT22;10358;49.590;11.030;2023-06-04T00:11:22;13.30;59.80
20398;DHT22;10358;49.590;11.030;2023-06-04T00:13:48;13.20;59.70
20398;DHT22;10358;49.590;11.030;2023-06-04T00:16:14;13.10;59.80
20398;DHT22;10358;49.590;11.030;2023-06-04T00:18:39;13.00;60.10
20398;DHT22;10358;49.590;11.030;2023-06-04T00:21:05;13.00;60.30
20398;DHT22;10358;49.590;11.030;2023-06-04T00:23:30;12.80;60.50
20398;DHT22;10358;49.590;11.030;2023-06-04T00:25:56;12.80;61.10
20398;DHT22;10358;49.590;11.030;2023-06-04T00:28:21;12.70;61.00
20398;DHT22;10358;49.590;11.030;2023-06-04T00:30:47;12.70;61.40
20398;DHT22;10358;49.590;11.030;2023-06-04T00:33:13;12.50;61.60
20398;DHT22;10358;49.590;11.030;2023-06-04T00:35:38;12.30;62.10
20398;DHT22;10358;49.590;11.030;2023-06-04T00:38:04;12.30;62.40
20398;DHT22;10358;49.590;11.030;2023-06-04T00:40:29;12.30;62.40
20398;DHT22;10358;49.590;11.030;2023-06-04T00:42:55;12.30;62.80
20398;DHT22;10358;49.590;11.030;2023-06-04T00:45:23;12.40;62.40
20398;DHT22;10358;49.590;11.030;2023-06-04T00:47:51;12.40;62.80
20398;DHT22;10358;49.590;11.030;2023-06-04T00:50:17;12.30;62.90
20398;DHT22;10358;49.590;11.030;2023-06-04T00:52:43;12.30;63.50
20398;DHT22;10358;49.590;11.030;2023-06-04T00:55:09;12.20;63.60
20398;DHT22;10358;49.590;11.030;2023-06-04T00:57:36;12.20;63.50
20398;DHT22;10358;49.590;11.030;2023-06-04T01:00:02;12.20;63.60
20398;DHT22;10358;49.590;11.030;2023-06-04T01:02:30;12.10;63.90
20398;DHT22;10358;49.590;11.030;2023-06-04T01:05:33;12.10;64.10
20398;DHT22;10358;49.590;11.030;2023-06-04T01:08:02;12.10;64.40
20398;DHT22;10358;49.590;11.030;2023-06-04T01:10:27;12.10;64.80
20398;DHT22;10358;49.590;11.030;2023-06-04T01:12:53;12.00;65.80
20398;DHT22;10358;49.590;11.030;2023-06-04T01:15:18;11.90;65.50
20398;DHT22;10358;49.590;11.030;2023-06-04T01:17:48;11.70;66.10
20398;DHT22;10358;49.590;11.030;2023-06-04T01:22:56;11.70;65.90
20398;DHT22;10358;49.590;11.030;2023-06-04T01:25:39;11.70;65.90
20398;DHT22;10358;49.590;11.030;2023-06-04T01:28:07;11.70;66.00
20398;DHT22;10358;49.590;11.030;2023-06-04T01:30:37;11.60;66.30
20398;DHT22;10358;49.590;11.030;2023-06-04T01:33:09;11.70;66.40
20398;DHT22;10358;49.590;11.030;2023-06-04T01:35:36;11.70;66.50
20398;DHT22;10358;49.590;11.030;2023-06-04T01:38:02;11.80;66.80
20398;DHT22;10358;49.590;11.030;2023-06-04T01:40:28;11.80;66.70
20398;DHT22;10358;49.590;11.030;2023-06-04T01:42:54;11.80;67.00
20398;DHT22;10358;49.590;11.030;2023-06-04T01:45:24;11.70;67.20
20398;DHT22;10358;49.590;11.030;2023-06-04T01:47:50;11.70;67.50
20398;DHT22;10358;49.590;11.030;2023-06-04T01:50:16;11.60;67.90
20398;DHT22;10358;49.590;11.030;2023-06-04T01:52:42;11.50;68.20
20398;DHT22;10358;49.590;11.030;2023-06-04T01:55:10;11.40;68.60
20398;DHT22;10358;49.590;11.030;2023-06-04T01:57:37;11.40;68.70
20398;DHT22;10358;49.590;11.030;2023-06-04T02:00:07;11.30;69.00
20398;DHT22;10358;49.590;11.030;2023-06-04T02:02:35;11.30;69.60
20398;DHT22;10358;49.590;11.030;2023-06-04T02:05:04;11.20;69.70
20398;DHT22;10358;49.590;11.030;2023-06-04T02:07:44;11.10;70.40
20398;DHT22;10358;49.590;11.030;2023-06-04T02:10:12;11.00;71.00
20398;DHT22;10358;49.590;11.030;2023-06-04T02:12:40;11.10;71.10
20398;DHT22;10358;49.590;11.030;2023-06-04T02:15:07;11.10;71.30
20398;DHT22;10358;49.590;11.030;2023-06-04T02:17:33;11.10;71.10
20398;DHT22;10358;49.590;11.030;2023-06-04T02:20:03;11.10;71.30
20398;DHT22;10358;49.590;11.030;2023-06-04T02:22:29;11.10;71.50
20398;DHT22;10358;49.590;11.030;2023-06-04T02:24:54;11.20;71.80
20398;DHT22;10358;49.590;11.030;2023-06-04T02:27:20;11.20;72.10
20398;DHT22;10358;49.590;11.030;2023-06-04T02:29:46;11.10;72.00
20398;DHT22;10358;49.590;11.030;2023-06-04T02:32:11;11.10;72.20
20398;DHT22;10358;49.590;11.030;2023-06-04T02:34:37;11.00;72.50
20398;DHT22;10358;49.590;11.030;2023-06-04T02:37:03;10.90;72.80
20398;DHT22;10358;49.590;11.030;2023-06-04T02:39:29;10.90;73.50
20398;DHT22;10358;49.590;11.030;2023-06-04T02:41:54;10.70;74.40
20398;DHT22;10358;49.590;11.030;2023-06-04T02:44:20;10.60;74.50
20398;DHT22;10358;49.590;11.030;2023-06-04T02:46:46;10.50;75.10
20398;DHT22;10358;49.590;11.030;2023-06-04T02:49:12;10.60;74.90
20398;DHT22;10358;49.590;11.030;2023-06-04T02:51:42;10.50;75.50
20398;DHT22;10358;49.590;11.030;2023-06-04T02:54:07;10.50;75.80
20398;DHT22;10358;49.590;11.030;2023-06-04T02:56:34;10.50;75.70
20398;DHT22;10358;49.590;11.030;2023-06-04T02:59:00;10.50;76.00
20398;DHT22;10358;49.590;11.030;2023-06-04T03:01:26;10.40;76.30
20398;DHT22;10358;49.590;11.030;2023-06-04T03:03:55;10.30;76.80
20398;DHT22;10358;49.590;11.030;2023-06-04T03:06:22;10.30;77.10
20398;DHT22;10358;49.590;11.030;2023-06-04T03:08:49;10.20;77.30
20398;DHT22;10358;49.590;11.030;2023-06-04T03:11:16;10.10;77.80
20398;DHT22;10358;49.590;11.030;2023-06-04T03:13:41;9.90;78.50
20398;DHT22;10358;49.590;11.030;2023-06-04T03:16:07;9.70;79.60
20398;DHT22;10358;49.590;11.030;2023-06-04T03:18:35;9.70;80.10
20398;DHT22;10358;49.590;11.030;2023-06-04T03:21:02;9.70;80.60
20398;DHT22;10358;49.590;11.030;2023-06-04T03:23:27;9.70;81.20
20398;DHT22;10358;49.590;11.030;2023-06-04T03:25:53;9.60;81.50
20398;DHT22;10358;49.590;11.030;2023-06-04T03:28:18;9.70;81.60
20398;DHT22;10358;49.590;11.030;2023-06-04T03:30:44;9.70;81.60
20398;DHT22;10358;49.590;11.030;2023-06-04T03:33:09;9.80;82.50
20398;DHT22;10358;49.590;11.030;2023-06-04T03:35:35;9.80;81.90
20398;DHT22;10358;49.590;11.030;2023-06-04T03:38:00;9.80;81.90
20398;DHT22;10358;49.590;11.030;2023-06-04T03:40:26;9.90;82.10
20398;DHT22;10358;49.590;11.030;2023-06-04T03:42:51;9.80;82.60
20398;DHT22;10358;49.590;11.030;2023-06-04T03:45:17;9.70;83.40
20398;DHT22;10358;49.590;11.030;2023-06-04T03:47:43;9.70;83.90
20398;DHT22;10358;49.590;11.030;2023-06-04T03:50:08;9.70;84.10
20398;DHT22;10358;49.590;11.030;2023-06-04T03:52:35;9.80;84.40
20398;DHT22;10358;49.590;11.030;2023-06-04T03:55:00;9.80;84.60
20398;DHT22;10358;49.590;11.030;2023-06-04T03:57:26;9.80;84.80
20398;DHT22;10358;49.590;11.030;2023-06-04T03:59:52;9.90;84.80
20398;DHT22;10358;49.590;11.030;2023-06-04T04:02:18;9.90;84.70
20398;DHT22;10358;49.590;11.030;2023-06-04T04:04:44;10.00;84.80
20398;DHT22;10358;49.590;11.030;2023-06-04T04:07:09;10.10;84.60
20398;DHT22;10358;49.590;11.030;2023-06-04T04:09:36;10.10;84.60
20398;DHT22;10358;49.590;11.030;2023-06-04T04:12:02;10.20;84.70
20398;DHT22;10358;49.590;11.030;2023-06-04T04:14:28;10.20;84.70
20398;DHT22;10358;49.590;11.030;2023-06-04T04:16:53;10.30;84.80
20398;DHT22;10358;49.590;11.030;2023-06-04T04:19:19;10.30;84.70
20398;DHT22;10358;49.590;11.030;2023-06-04T04:21:46;10.40;84.50
20398;DHT22;10358;49.590;11.030;2023-06-04T04:24:22;10.50;85.20
20398;DHT22;10358;49.590;11.030;2023-06-04T04:26:48;10.60;85.20
20398;DHT22;10358;49.590;11.030;2023-06-04T04:29:13;10.80;84.70
20398;DHT22;10358;49.590;11.030;2023-06-04T04:31:39;10.90;84.70
20398;DHT22;10358;49.590;11.030;2023-06-04T04:34:07;10.90;84.80
20398;DHT22;10358;49.590;11.030;2023-06-04T04:36:34;11.00;85.00
20398;DHT22;10358;49.590;11.030;2023-06-04T04:39:01;11.00;85.30
20398;DHT22;10358;49.590;11.030;2023-06-04T04:41:27;10.90;85.80
20398;DHT22;10358;49.590;11.030;2023-06-04T04:43:53;10.90;86.20
20398;DHT22;10358;49.590;11.030;2023-06-04T04:46:19;10.90;86.70
20398;DHT22;10358;49.590;11.030;2023-06-04T04:48:44;10.90;87.10
20398;DHT22;10358;49.590;11.030;2023-06-04T04:51:10;11.00;86.90
20398;DHT22;10358;49.590;11.030;2023-06-04T04:53:35;11.20;86.00
20398;DHT22;10358;49.590;11.030;2023-06-04T04:56:01;11.30;86.10
20398;DHT22;10358;49.590;11.030;2023-06-04T04:58:27;11.40;86.10
20398;DHT22;10358;49.590;11.030;2023-06-04T05:00:52;11.60;86.20
20398;DHT22;10358;49.590;11.030;2023-06-04T05:03:18;11.60;86.00
20398;DHT22;10358;49.590;11.030;2023-06-04T05:05:43;11.70;85.90
20398;DHT22;10358;49.590;11.030;2023-06-04T05:08:09;11.90;85.50
20398;DHT22;10358;49.590;11.030;2023-06-04T05:10:34;12.10;84.50
20398;DHT22;10358;49.590;11.030;2023-06-04T05:13:01;12.20;84.10
20398;DHT22;10358;49.590;11.030;2023-06-04T05:15:27;12.30;84.00
20398;DHT22;10358;49.590;11.030;2023-06-04T05:17:53;12.40;83.60
20398;DHT22;10358;49.590;11.030;2023-06-04T05:20:19;12.50;83.40
20398;DHT22;10358;49.590;11.030;2023-06-04T05:22:46;12.60;83.20
20398;DHT22;10358;49.590;11.030;2023-06-04T05:25:12;12.80;82.90
20398;DHT22;10358;49.590;11.030;2023-06-04T05:27:39;13.00;82.20
20398;DHT22;10358;49.590;11.030;2023-06-04T05:30:05;13.20;82.00
20398;DHT22;10358;49.590;11.030;2023-06-04T05:32:32;13.30;82.00
20398;DHT22;10358;49.590;11.030;2023-06-04T05:34:58;13.40;81.90
20398;DHT22;10358;49.590;11.030;2023-06-04T05:37:25;13.60;81.90
20398;DHT22;10358;49.590;11.030;2023-06-04T05:39:52;13.80;82.10
20398;DHT22;10358;49.590;11.030;2023-06-04T05:42:18;13.90;82.00
20398;DHT22;10358;49.590;11.030;2023-06-04T05:44:44;14.10;82.70
20398;DHT22;10358;49.590;11.030;2023-06-04T05:47:09;14.20;82.00
20398;DHT22;10358;49.590;11.030;2023-06-04T05:49:35;14.40;80.70
20398;DHT22;10358;49.590;11.030;2023-06-04T05:52:01;14.50;79.40
20398;DHT22;10358;49.590;11.030;2023-06-04T05:54:28;14.60;78.80
20398;DHT22;10358;49.590;11.030;2023-06-04T05:56:54;14.80;78.30
20398;DHT22;10358;49.590;11.030;2023-06-04T05:59:19;14.80;77.00
20398;DHT22;10358;49.590;11.030;2023-06-04T06:01:45;15.00;76.30
20398;DHT22;10358;49.590;11.030;2023-06-04T06:04:13;15.00;75.40
20398;DHT22;10358;49.590;11.030;2023-06-04T06:06:38;15.10;74.80
20398;DHT22;10358;49.590;11.030;2023-06-04T06:09:04;15.30;74.30
20398;DHT22;10358;49.590;11.030;2023-06-04T06:11:31;15.50;73.80
20398;DHT22;10358;49.590;11.030;2023-06-04T06:13:56;15.60;72.60
20398;DHT22;10358;49.590;11.030;2023-06-04T06:16:22;15.80;72.50
20398;DHT22;10358;49.590;11.030;2023-06-04T06:18:47;15.90;71.80
20398;DHT22;10358;49.590;11.030;2023-06-04T06:21:13;16.00;71.60
20398;DHT22;10358;49.590;11.030;2023-06-04T06:23:39;16.10;71.00
20398;DHT22;10358;49.590;11.030;2023-06-04T06:26:04;16.20;70.70
20398;DHT22;10358;49.590;11.030;2023-06-04T06:28:33;16.30;70.60
20398;DHT22;10358;49.590;11.030;2023-06-04T06:30:59;16.40;69.80
20398;DHT22;10358;49.590;11.030;2023-06-04T06:33:24;16.50;69.50
20398;DHT22;10358;49.590;11.030;2023-06-04T06:35:50;16.50;68.80
20398;DHT22;10358;49.590;11.030;2023-06-04T06:38:16;16.50;67.40
20398;DHT22;10358;49.590;11.030;2023-06-04T06:40:41;16.60;67.80
20398;DHT22;10358;49.590;11.030;2023-06-04T06:43:07;16.60;67.70
20398;DHT22;10358;49.590;11.030;2023-06-04T06:45:32;16.80;67.80
20398;DHT22;10358;49.590;11.030;2023-06-04T06:47:58;16.80;67.20
20398;DHT22;10358;49.590;11.030;2023-06-04T06:50:23;16.80;66.60
20398;DHT22;10358;49.590;11.030;2023-06-04T06:52:49;16.90;66.10
20398;DHT22;10358;49.590;11.030;2023-06-04T06:55:15;17.10;66.00
20398;DHT22;10358;49.590;11.030;2023-06-04T06:57:40;17.20;65.80
20398;DHT22;10358;49.590;11.030;2023-06-04T07:00:07;17.30;65.40
20398;DHT22;10358;49.590;11.030;2023-06-04T07:02:33;17.30;65.20
20398;DHT22;10358;49.590;11.030;2023-06-04T07:04:58;17.30;64.90
20398;DHT22;10358;49.590;11.030;2023-06-04T07:07:25;17.30;64.20
20398;DHT22;10358;49.590;11.030;2023-06-04T07:09:51;17.40;64.60
20398;DHT22;10358;49.590;11.030;2023-06-04T07:12:17;17.40;64.20
20398;DHT22;10358;49.590;11.030;2023-06-04T07:14:43;17.50;64.30
20398;DHT22;10358;49.590;11.030;2023-06-04T07:17:08;17.70;64.20
20398;DHT22;10358;49.590;11.030;2023-06-04T07:19:34;17.80;63.50
20398;DHT22;10358;49.590;11.030;2023-06-04T07:22:00;17.90;62.70
20398;DHT22;10358;49.590;11.030;2023-06-04T07:24:25;18.00;62.20
20398;DHT22;10358;49.590;11.030;2023-06-04T07:26:52;18.10;61.30
20398;DHT22;10358;49.590;11.030;2023-06-04T07:29:17;18.10;60.10
20398;DHT22;10358;49.590;11.030;2023-06-04T07:31:43;18.10;60.50
20398;DHT22;10358;49.590;11.030;2023-06-04T07:34:08;18.30;60.70
20398;DHT22;10358;49.590;11.030;2023-06-04T07:36:34;18.40;60.10
20398;DHT22;10358;49.590;11.030;2023-06-04T07:39:00;18.40;60.40
20398;DHT22;10358;49.590;11.030;2023-06-04T07:41:25;18.60;59.60
20398;DHT22;10358;49.590;11.030;2023-06-04T07:43:54;18.70;59.50
20398;DHT22;10358;49.590;11.030;2023-06-04T07:46:19;18.80;59.30
20398;DHT22;10358;49.590;11.030;2023-06-04T07:48:45;18.90;58.90
20398;DHT22;10358;49.590;11.030;2023-06-04T07:51:12;19.00;58.60
20398;DHT22;10358;49.590;11.030;2023-06-04T07:53:37;19.10;58.30
20398;DHT22;10358;49.590;11.030;2023-06-04T07:56:03;19.10;58.00
20398;DHT22;10358;49.590;11.030;2023-06-04T07:58:29;19.20;57.80
20398;DHT22;10358;49.590;11.030;2023-06-04T08:00:55;19.30;57.60
20398;DHT22;10358;49.590;11.030;2023-06-04T08:03:21;19.40;57.60
20398;DHT22;10358;49.590;11.030;2023-06-04T08:05:47;19.40;57.20
20398;DHT22;10358;49.590;11.030;2023-06-04T08:08:12;19.60;57.10
20398;DHT22;10358;49.590;11.030;2023-06-04T08:10:41;19.70;56.90
20398;DHT22;10358;49.590;11.030;2023-06-04T08:13:07;19.80;56.80
20398;DHT22;10358;49.590;11.030;2023-06-04T08:15:33;19.80;56.60
20398;DHT22;10358;49.590;11.030;2023-06-04T08:17:59;20.00;56.30
20398;DHT22;10358;49.590;11.030;2023-06-04T08:20:25;20.00;56.90
20398;DHT22;10358;49.590;11.030;2023-06-04T08:22:51;20.10;55.60
20398;DHT22;10358;49.590;11.030;2023-06-04T08:25:16;20.00;55.10
20398;DHT22;10358;49.590;11.030;2023-06-04T08:27:42;19.90;54.60
20398;DHT22;10358;49.590;11.030;2023-06-04T08:30:08;19.80;54.70
20398;DHT22;10358;49.590;11.030;2023-06-04T08:32:34;19.80;54.80
20398;DHT22;10358;49.590;11.030;2023-06-04T08:35:00;19.80;55.10
20398;DHT22;10358;49.590;11.030;2023-06-04T08:37:25;20.00;55.30
20398;DHT22;10358;49.590;11.030;2023-06-04T08:39:51;20.20;55.00
20398;DHT22;10358;49.590;11.030;2023-06-04T08:42:44;20.30;54.50
20398;DHT22;10358;49.590;11.030;2023-06-04T08:45:14;20.40;55.30
20398;DHT22;10358;49.590;11.030;2023-06-04T08:47:44;20.60;54.60
20398;DHT22;10358;49.590;11.030;2023-06-04T08:50:16;20.60;53.40
20398;DHT22;10358;49.590;11.030;2023-06-04T08:52:42;20.70;52.60
20398;DHT22;10358;49.590;11.030;2023-06-04T08:55:08;20.70;52.20
20398;DHT22;10358;49.590;11.030;2023-06-04T08:57:36;20.80;51.50
20398;DHT22;10358;49.590;11.030;2023-06-04T09:00:03;20.80;51.40
20398;DHT22;10358;49.590;11.030;2023-06-04T09:02:30;20.80;51.10
20398;DHT22;10358;49.590;11.030;2023-06-04T09:04:56;20.70;50.90
20398;DHT22;10358;49.590;11.030;2023-06-04T09:07:23;20.80;51.10
20398;DHT22;10358;49.590;11.030;2023-06-04T09:09:50;20.90;50.60
20398;DHT22;10358;49.590;11.030;2023-06-04T09:12:23;21.10;50.10
20398;DHT22;10358;49.590;11.030;2023-06-04T09:14:48;21.10;49.60
20398;DHT22;10358;49.590;11.030;2023-06-04T09:17:20;21.20;49.60
20398;DHT22;10358;49.590;11.030;2023-06-04T09:19:46;21.30;50.80
20398;DHT22;10358;49.590;11.030;2023-06-04T09:22:12;21.40;49.80
20398;DHT22;10358;49.590;11.030;2023-06-04T09:24:47;21.50;49.00
20398;DHT22;10358;49.590;11.030;2023-06-04T09:27:19;21.40;48.40
20398;DHT22;10358;49.590;11.030;2023-06-04T09:29:53;21.50;49.20
20398;DHT22;10358;49.590;11.030;2023-06-04T09:32:30;21.50;48.40
20398;DHT22;10358;49.590;11.030;2023-06-04T09:35:07;21.60;48.00
20398;DHT22;10358;49.590;11.030;2023-06-04T09:37:34;21.60;47.60
20398;DHT22;10358;49.590;11.030;2023-06-04T09:40:00;21.60;46.80
20398;DHT22;10358;49.590;11.030;2023-06-04T09:42:26;21.50;46.80
20398;DHT22;10358;49.590;11.030;2023-06-04T09:44:52;21.50;46.90
20398;DHT22;10358;49.590;11.030;2023-06-04T09:47:17;21.40;46.40
20398;DHT22;10358;49.590;11.030;2023-06-04T09:49:48;21.40;45.00
20398;DHT22;10358;49.590;11.030;2023-06-04T09:52:32;21.30;45.40
20398;DHT22;10358;49.590;11.030;2023-06-04T09:55:02;21.40;45.40
20398;DHT22;10358;49.590;11.030;2023-06-04T09:57:29;21.50;45.80
20398;DHT22;10358;49.590;11.030;2023-06-04T09:59:57;21.70;46.10
20398;DHT22;10358;49.590;11.030;2023-06-04T10:02:24;21.80;45.90
20398;DHT22;10358;49.590;11.030;2023-06-04T10:04:55;22.00;44.60
20398;DHT22;10358;49.590;11.030;2023-06-04T10:07:27;22.10;45.90
20398;DHT22;10358;49.590;11.030;2023-06-04T10:09:53;22.30;45.10
20398;DHT22;10358;49.590;11.030;2023-06-04T10:12:31;22.30;44.70
20398;DHT22;10358;49.590;11.030;2023-06-04T10:15:02;22.40;44.30
20398;DHT22;10358;49.590;11.030;2023-06-04T10:17:31;22.50;44.50
20398;DHT22;10358;49.590;11.030;2023-06-04T10:19:58;22.60;43.80
20398;DHT22;10358;49.590;11.030;2023-06-04T10:22:25;22.60;42.80
20398;DHT22;10358;49.590;11.030;2023-06-04T10:24:51;22.50;42.60
20398;DHT22;10358;49.590;11.030;2023-06-04T10:27:20;22.40;42.50
20398;DHT22;10358;49.590;11.030;2023-06-04T10:29:47;22.40;42.70
20398;DHT22;10358;49.590;11.030;2023-06-04T10:32:13;22.50;42.70
20398;DHT22;10358;49.590;11.030;2023-06-04T10:34:43;22.50;41.40
20398;DHT22;10358;49.590;11.030;2023-06-04T10:37:22;22.60;41.70
20398;DHT22;10358;49.590;11.030;2023-06-04T10:39:55;22.50;41.60
20398;DHT22;10358;49.590;11.030;2023-06-04T10:42:23;22.40;42.20
20398;DHT22;10358;49.590;11.030;2023-06-04T10:44:50;22.50;42.00
20398;DHT22;10358;49.590;11.030;2023-06-04T10:47:26;22.50;42.40
20398;DHT22;10358;49.590;11.030;2023-06-04T10:49:53;22.70;41.90
20398;DHT22;10358;49.590;11.030;2023-06-04T10:52:19;22.70;41.80
20398;DHT22;10358;49.590;11.030;2023-06-04T10:54:45;22.80;42.00
20398;DHT22;10358;49.590;11.030;2023-06-04T10:57:18;22.80;42.10
20398;DHT22;10358;49.590;11.030;2023-06-04T10:59:57;23.00;41.90
20398;DHT22;10358;49.590;11.030;2023-06-04T11:02:23;23.10;41.50
20398;DHT22;10358;49.590;11.030;2023-06-04T11:05:01;23.10;41.60
20398;DHT22;10358;49.590;11.030;2023-06-04T11:07:45;23.20;41.40
20398;DHT22;10358;49.590;11.030;2023-06-04T11:10:12;23.20;41.40
20398;DHT22;10358;49.590;11.030;2023-06-04T11:12:45;23.30;41.70
20398;DHT22;10358;49.590;11.030;2023-06-04T11:15:11;23.40;41.40
20398;DHT22;10358;49.590;11.030;2023-06-04T11:17:37;23.40;41.40
20398;DHT22;10358;49.590;11.030;2023-06-04T11:20:03;23.60;41.30
20398;DHT22;10358;49.590;11.030;2023-06-04T11:22:32;23.60;41.20
20398;DHT22;10358;49.590;11.030;2023-06-04T11:24:58;23.80;41.40
20398;DHT22;10358;49.590;11.030;2023-06-04T11:27:24;23.80;41.10
20398;DHT22;10358;49.590;11.030;2023-06-04T11:29:51;23.80;40.80
20398;DHT22;10358;49.590;11.030;2023-06-04T11:32:24;23.80;40.30
20398;DHT22;10358;49.590;11.030;2023-06-04T11:34:50;23.70;39.60
20398;DHT22;10358;49.590;11.030;2023-06-04T11:37:16;23.50;38.80
20398;DHT22;10358;49.590;11.030;2023-06-04T11:39:41;23.20;39.30
20398;DHT22;10358;49.590;11.030;2023-06-04T11:42:09;23.00;39.30
20398;DHT22;10358;49.590;11.030;2023-06-04T11:44:35;23.00;39.60
20398;DHT22;10358;49.590;11.030;2023-06-04T11:47:08;23.00;39.80
20398;DHT22;10358;49.590;11.030;2023-06-04T11:49:35;23.20;39.40
20398;DHT22;10358;49.590;11.030;2023-06-04T11:52:01;23.40;39.00
20398;DHT22;10358;49.590;11.030;2023-06-04T11:54:27;23.60;38.70
20398;DHT22;10358;49.590;11.030;2023-06-04T11:56:53;23.70;38.80
20398;DHT22;10358;49.590;11.030;2023-06-04T11:59:19;23.90;38.40
20398;DHT22;10358;49.590;11.030;2023-06-04T12:01:46;24.10;38.40
20398;DHT22;10358;49.590;11.030;2023-06-04T12:04:17;24.20;37.70
20398;DHT22;10358;49.590;11.030;2023-06-04T12:09:26;23.80;37.80
20398;DHT22;10358;49.590;11.030;2023-06-04T12:12:00;23.90;37.90
20398;DHT22;10358;49.590;11.030;2023-06-04T12:14:26;24.30;37.50
20398;DHT22;10358;49.590;11.030;2023-06-04T12:17:21;24.40;37.20
20398;DHT22;10358;49.590;11.030;2023-06-04T12:19:48;24.60;36.70
20398;DHT22;10358;49.590;11.030;2023-06-04T12:22:14;24.80;36.70
20398;DHT22;10358;49.590;11.030;2023-06-04T12:24:48;24.90;36.50
20398;DHT22;10358;49.590;11.030;2023-06-04T12:27:17;25.10;37.00
20398;DHT22;10358;49.590;11.030;2023-06-04T12:29:42;25.30;36.60
20398;DHT22;10358;49.590;11.030;2023-06-04T12:32:09;25.50;36.40
20398;DHT22;10358;49.590;11.030;2023-06-04T12:34:37;25.60;36.50
20398;DHT22;10358;49.590;11.030;2023-06-04T12:37:03;25.70;36.40
20398;DHT22;10358;49.590;11.030;2023-06-04T12:39:37;25.90;36.40
20398;DHT22;10358;49.590;11.030;2023-06-04T12:42:04;25.90;36.00
20398;DHT22;10358;49.590;11.030;2023-06-04T12:44:30;26.10;35.80
20398;DHT22;10358;49.590;11.030;2023-06-04T12:46:56;26.40;35.60
20398;DHT22;10358;49.590;11.030;2023-06-04T12:49:22;26.50;35.20
20398;DHT22;10358;49.590;11.030;2023-06-04T12:51:50;26.70;34.70
20398;DHT22;10358;49.590;11.030;2023-06-04T12:54:15;26.90;34.80
20398;DHT22;10358;49.590;11.030;2023-06-04T12:56:42;27.10;34.60
20398;DHT22;10358;49.590;11.030;2023-06-04T12:59:08;27.30;34.20
20398;DHT22;10358;49.590;11.030;2023-06-04T13:01:34;27.60;33.90
20398;DHT22;10358;49.590;11.030;2023-06-04T13:04:00;27.70;33.60
20398;DHT22;10358;49.590;11.030;2023-06-04T13:06:25;27.80;33.30
20398;DHT22;10358;49.590;11.030;2023-06-04T13:08:51;27.90;33.90
20398;DHT22;10358;49.590;11.030;2023-06-04T13:11:17;28.10;33.10
20398;DHT22;10358;49.590;11.030;2023-06-04T13:13:43;28.40;33.10
20398;DHT22;10358;49.590;11.030;2023-06-04T13:16:08;28.70;32.80
20398;DHT22;10358;49.590;11.030;2023-06-04T13:18:34;28.90;32.30
20398;DHT22;10358;49.590;11.030;2023-06-04T13:21:00;29.20;31.70
20398;DHT22;10358;49.590;11.030;2023-06-04T13:23:27;29.20;31.10
20398;DHT22;10358;49.590;11.030;2023-06-04T13:25:52;29.20;30.50
20398;DHT22;10358;49.590;11.030;2023-06-04T13:28:18;29.10;29.90
20398;DHT22;10358;49.590;11.030;2023-06-04T13:30:44;29.10;30.00
20398;DHT22;10358;49.590;11.030;2023-06-04T13:33:09;29.30;30.00
20398;DHT22;10358;49.590;11.030;2023-06-04T13:35:35;29.60;29.90
20398;DHT22;10358;49.590;11.030;2023-06-04T13:38:03;29.90;29.90
20398;DHT22;10358;49.590;11.030;2023-06-04T13:40:29;30.10;29.70
20398;DHT22;10358;49.590;11.030;2023-06-04T13:42:55;30.30;30.20
20398;DHT22;10358;49.590;11.030;2023-06-04T13:45:21;30.70;29.40
20398;DHT22;10358;49.590;11.030;2023-06-04T13:47:49;31.30;29.30
20398;DHT22;10358;49.590;11.030;2023-06-04T13:50:15;31.90;28.80
20398;DHT22;10358;49.590;11.030;2023-06-04T13:52:40;32.30;28.10
20398;DHT22;10358;49.590;11.030;2023-06-04T13:55:07;32.50;27.70
20398;DHT22;10358;49.590;11.030;2023-06-04T13:57:32;32.90;27.70
20398;DHT22;10358;49.590;11.030;2023-06-04T13:59:58;33.10;27.30
20398;DHT22;10358;49.590;11.030;2023-06-04T14:02:23;33.30;27.20
20398;DHT22;10358;49.590;11.030;2023-06-04T14:04:53;33.50;27.10
20398;DHT22;10358;49.590;11.030;2023-06-04T14:07:20;33.90;26.70
20398;DHT22;10358;49.590;11.030;2023-06-04T14:09:45;34.10;26.60
20398;DHT22;10358;49.590;11.030;2023-06-04T14:12:11;34.30;26.30
20398;DHT22;10358;49.590;11.030;2023-06-04T14:14:38;34.20;25.50
20398;DHT22;10358;49.590;11.030;2023-06-04T14:17:04;34.00;25.70
20398;DHT22;10358;49.590;11.030;2023-06-04T14:19:30;33.90;25.40
20398;DHT22;10358;49.590;11.030;2023-06-04T14:21:56;34.10;25.80
20398;DHT22;10358;49.590;11.030;2023-06-04T14:24:22;34.20;25.50
20398;DHT22;10358;49.590;11.030;2023-06-04T14:26:47;34.50;25.60
20398;DHT22;10358;49.590;11.030;2023-06-04T14:29:13;35.20;25.40
20398;DHT22;10358;49.590;11.030;2023-06-04T14:31:39;35.60;25.20
20398;DHT22;10358;49.590;11.030;2023-06-04T14:34:05;35.90;24.90
20398;DHT22;10358;49.590;11.030;2023-06-04T14:36:32;36.30;24.50
20398;DHT22;10358;49.590;11.030;2023-06-04T14:38:58;36.50;24.50
20398;DHT22;10358;49.590;11.030;2023-06-04T14:41:23;36.80;24.10
20398;DHT22;10358;49.590;11.030;2023-06-04T14:43:49;37.00;24.10
20398;DHT22;10358;49.590;11.030;2023-06-04T14:46:15;37.30;24.00
20398;DHT22;10358;49.590;11.030;2023-06-04T14:48:41;37.60;23.60
20398;DHT22;10358;49.590;11.030;2023-06-04T14:51:07;37.50;23.60
20398;DHT22;10358;49.590;11.030;2023-06-04T14:53:32;37.70;23.70
20398;DHT22;10358;49.590;11.030;2023-06-04T14:55:58;37.70;23.50
20398;DHT22;10358;49.590;11.030;2023-06-04T14:58:23;37.80;23.50
20398;DHT22;10358;49.590;11.030;2023-06-04T15:00:49;38.00;23.30
20398;DHT22;10358;49.590;11.030;2023-06-04T15:03:14;38.20;23.20
20398;DHT22;10358;49.590;11.030;2023-06-04T15:05:40;38.70;23.10
20398;DHT22;10358;49.590;11.030;2023-06-04T15:08:05;39.00;22.90
20398;DHT22;10358;49.590;11.030;2023-06-04T15:10:31;39.30;21.90
20398;DHT22;10358;49.590;11.030;2023-06-04T15:12:59;38.80;22.30
20398;DHT22;10358;49.590;11.030;2023-06-04T15:15:25;38.80;22.80
20398;DHT22;10358;49.590;11.030;2023-06-04T15:17:51;39.00;22.70
20398;DHT22;10358;49.590;11.030;2023-06-04T15:20:17;39.20;22.50
20398;DHT22;10358;49.590;11.030;2023-06-04T15:22:43;39.10;22.50